MUHG/HOG METAR and TAF weather

Enter ICAO airport designator
Station Type Date Time Source
MUHG METAR 2021/05/14 12:50 UTC NOAA

MUHG 141250Z 10007KT 9000 FEW012 SCT024 27/24 Q1016


Station Type Date Time Source
MUHG Decoded METAR 2021/05/14 12:50 UTC NOAA

Holguin Civ / Mil , Cuba (MUHG) 20-47N 076-19W
May 14, 2021 - 08:50 AM EDT / 2021.05.14 1250 UTC
Wind: from the E (100 degrees) at 8 MPH (7 KT):0
Visibility: 5 mile(s):0
Sky conditions: partly cloudy
Temperature: 80 F (27 C)
Dew Point: 75 F (24 C)
Relative Humidity: 83%
Pressure (altimeter): 30.00 in. Hg (1016 hPa)
ob: MUHG 141250Z 10007KT 9000 FEW012 SCT024 27/24 Q1016
cycle: 13

Station Type Date Time Source
MUHG TAF 2021/05/14 12:03 UTC NOAA

TAF MUHG 141100Z 1412/1512 VRB03KT 9000 SCT020
TEMPO 1412/1413 5000 BR
BECMG 1414/1416 08010KT
TEMPO 1420/1423 03012KT SCT030CB BKN040

Example: see airport list